Time;durP1;ratioP1;P1;durP2;ratioP2;P2;SDS_P1;SDS_P2;PMS_P1;PMS_P2;Temp;Humidity;BMP_temperature;BMP_pressure;BME280_temperature;BME280_humidity;BME280_pressure;Samples;Min_cycle;Max_cycle;Signal;HPM_P1;HPM_P2
2022/05/03 00:00:35;;;;;;;3.90;2.70;;;9.40;93.90;9.20;100592.00;;;;4953777;28;86970;-68
2022/05/03 00:03:24;;;;;;;3.73;2.93;;;9.30;94.30;9.10;100590.00;;;;4945367;28;111657;-69
2022/05/03 00:06:16;;;;;;;3.67;3.17;;;9.20;94.60;9.00;100573.00;;;;4936838;28;87819;-69
2022/05/03 00:09:04;;;;;;;4.20;2.90;;;9.20;94.90;9.00;100593.00;;;;4917422;28;104422;-68
2022/05/03 00:12:00;;;;;;;4.63;3.43;;;9.20;95.10;9.00;100579.00;;;;4943052;28;89053;-69
2022/05/03 00:14:43;;;;;;;3.80;2.83;;;9.20;95.40;9.00;100575.00;;;;4952428;28;88070;-68
2022/05/03 00:17:10;;;;;;;5.77;3.63;;;9.10;96.10;9.00;100575.00;;;;4952895;28;103471;-68
2022/05/03 00:19:37;;;;;;;4.40;3.23;;;9.10;96.00;8.90;100573.00;;;;4955842;28;87752;-68
2022/05/03 00:22:03;;;;;;;5.63;3.90;;;9.00;96.30;8.90;100577.00;;;;4953850;28;117493;-68
2022/05/03 00:24:30;;;;;;;4.73;3.03;;;9.00;96.80;8.80;100579.00;;;;4937047;28;88565;-68
2022/05/03 00:26:55;;;;;;;5.93;3.60;;;8.90;97.30;8.70;100575.00;;;;4936011;28;87008;-68
2022/05/03 00:29:21;;;;;;;4.27;3.83;;;8.80;98.80;8.60;100578.00;;;;4935747;28;108403;-69
2022/05/03 00:31:47;;;;;;;7.67;3.73;;;8.70;98.90;8.50;100578.00;;;;4934138;28;118513;-68
2022/05/03 00:34:13;;;;;;;3.70;3.40;;;8.60;99.30;8.50;100576.00;;;;4966357;28;88975;-68
2022/05/03 00:36:39;;;;;;;4.37;3.77;;;8.60;99.50;8.40;100576.00;;;;4953880;28;90960;-69
2022/05/03 00:39:05;;;;;;;8.07;3.73;;;8.50;99.70;8.40;100581.00;;;;4953950;28;109512;-68
2022/05/03 00:41:56;;;;;;;4.60;3.33;;;8.50;99.90;8.40;100572.00;;;;4955405;28;88379;-69
2022/05/03 00:44:58;;;;;;;4.23;3.47;;;8.50;99.90;8.40;100580.00;;;;4952761;28;87817;-68
2022/05/03 00:47:53;;;;;;;4.70;3.23;;;8.50;99.90;8.40;100578.00;;;;4953637;28;88557;-69
2022/05/03 00:50:36;;;;;;;5.90;3.43;;;8.50;99.90;8.50;100573.00;;;;4953860;28;87776;-68
2022/05/03 00:53:19;;;;;;;6.43;3.23;;;8.60;99.90;8.50;100582.00;;;;4953149;28;87196;-68
2022/05/03 00:56:52;;;;;;;6.10;4.10;;;8.60;99.90;8.60;100580.00;;;;4951438;28;87706;-68
2022/05/03 00:59:38;;;;;;;4.53;3.60;;;8.60;99.90;8.60;100564.00;;;;4925001;28;87738;-68
2022/05/03 01:02:06;;;;;;;3.00;2.70;;;8.70;99.90;8.60;100570.00;;;;4954020;28;99833;-68
2022/05/03 01:04:56;;;;;;;3.73;3.40;;;8.60;99.90;8.60;100581.00;;;;4958847;28;88659;-68
2022/05/03 01:07:34;;;;;;;6.07;3.63;;;8.70;99.90;8.60;100579.00;;;;4938995;28;87984;-69
2022/05/03 01:10:27;;;;;;;3.40;2.87;;;8.70;99.90;8.60;100569.00;;;;4935882;28;103963;-68
2022/05/03 01:13:50;;;;;;;4.20;3.80;;;8.70;99.90;8.40;100570.00;;;;4953203;28;100077;-68
2022/05/03 01:17:03;;;;;;;7.13;3.67;;;8.60;99.90;8.30;100564.00;;;;4947855;28;107403;-68
2022/05/03 01:19:56;;;;;;;9.00;3.20;;;8.50;99.90;8.20;100565.00;;;;4937399;28;88315;-68
2022/05/03 01:22:58;;;;;;;8.50;4.97;;;8.40;99.90;8.20;100555.00;;;;4955469;28;87109;-68
2022/05/03 01:25:43;;;;;;;4.00;3.57;;;8.30;99.90;8.10;100550.00;;;;4958171;28;87862;-68
2022/05/03 01:28:31;;;;;;;7.27;4.57;;;8.30;99.90;8.10;100544.00;;;;4956842;28;88139;-68
2022/05/03 01:31:05;;;;;;;7.00;3.90;;;8.30;99.90;8.10;100554.00;;;;4954633;28;89081;-69
2022/05/03 01:33:41;;;;;;;4.33;3.20;;;8.20;99.90;8.00;100558.00;;;;4949540;28;87753;-68
2022/05/03 01:36:09;;;;;;;4.77;3.20;;;8.10;99.90;8.00;100555.00;;;;4958175;28;87714;-69
2022/05/03 01:39:05;;;;;;;4.97;4.03;;;8.10;99.90;8.00;100551.00;;;;4939212;28;98363;-68
2022/05/03 01:42:23;;;;;;;6.83;4.00;;;8.10;99.90;7.90;100550.00;;;;4952701;28;87798;-68
2022/05/03 01:45:08;;;;;;;7.00;3.77;;;8.10;99.90;7.90;100543.00;;;;4877221;28;88168;-68
2022/05/03 01:48:17;;;;;;;4.87;3.53;;;8.00;99.90;7.80;100547.00;;;;4933958;28;87632;-68
2022/05/03 01:51:06;;;;;;;5.17;3.37;;;8.00;99.90;7.80;100552.00;;;;4938844;28;87313;-68
2022/05/03 01:53:46;;;;;;;7.30;4.27;;;7.90;99.90;7.80;100560.00;;;;4947543;28;108140;-68
2022/05/03 01:56:26;;;;;;;5.73;3.80;;;7.90;99.90;7.70;100553.00;;;;4939447;28;87789;-68
2022/05/03 01:59:06;;;;;;;6.77;4.00;;;7.90;99.90;7.70;100557.00;;;;4955053;28;89281;-68
2022/05/03 02:01:52;;;;;;;5.63;4.10;;;7.90;99.90;7.70;100556.00;;;;4957268;28;92714;-68
2022/05/03 02:04:40;;;;;;;5.40;4.33;;;7.80;99.90;7.60;100556.00;;;;4956795;28;87994;-68
2022/05/03 02:07:49;;;;;;;5.33;4.03;;;8.00;99.90;7.50;100553.00;;;;4955452;28;102647;-68
2022/05/03 02:10:41;;;;;;;6.20;5.10;;;7.70;99.90;7.40;100545.00;;;;4919629;28;88243;-68
2022/05/03 02:16:37;;;;;;;6.37;4.47;;;7.50;99.90;7.30;100553.00;;;;4943510;28;87741;-68
2022/05/03 02:19:30;;;;;;;7.10;3.83;;;7.40;99.90;7.20;100547.00;;;;4954746;28;102681;-68
2022/05/03 02:22:39;;;;;;;9.73;5.03;;;7.40;99.90;7.10;100551.00;;;;4937601;28;87902;-68
2022/05/03 02:25:37;;;;;;;6.30;4.97;;;7.30;99.90;7.10;100558.00;;;;4937337;28;87654;-68
2022/05/03 02:28:37;;;;;;;4.77;3.83;;;7.30;99.90;7.00;100554.00;;;;4934350;28;88903;-67
2022/05/03 02:31:08;;;;;;;4.90;4.13;;;7.20;99.90;7.00;100554.00;;;;4936818;28;95219;-68
2022/05/03 02:33:43;;;;;;;5.17;4.30;;;7.20;99.90;7.00;100558.00;;;;4958157;28;102703;-68
2022/05/03 02:36:15;;;;;;;10.07;3.87;;;7.20;99.90;7.00;100548.00;;;;4967879;28;89848;-68
2022/05/03 02:39:05;;;;;;;5.87;4.50;;;7.10;99.90;6.90;100549.00;;;;4936954;28;87734;-68
2022/05/03 02:41:41;;;;;;;8.47;4.70;;;7.10;99.90;6.90;100545.00;;;;4955111;28;87992;-68
2022/05/03 02:44:08;;;;;;;6.70;5.83;;;7.00;99.90;6.80;100542.00;;;;4938918;28;107634;-68
2022/05/03 02:46:59;;;;;;;5.17;4.23;;;7.00;99.90;6.80;100549.00;;;;4937916;28;87724;-68
2022/05/03 02:49:50;;;;;;;6.10;5.27;;;6.90;99.90;6.70;100547.00;;;;4950856;28;103332;-67
2022/05/03 02:52:42;;;;;;;7.33;5.27;;;6.90;99.90;6.60;100539.00;;;;4952088;28;87927;-68
2022/05/03 02:55:30;;;;;;;5.07;4.57;;;6.90;99.90;6.60;100542.00;;;;4935725;28;100279;-69
2022/05/03 02:58:30;;;;;;;6.97;5.63;;;6.80;99.90;6.50;100551.00;;;;4935421;28;88088;-67
2022/05/03 03:01:50;;;;;;;4.87;4.00;;;6.70;99.90;6.50;100539.00;;;;4952008;28;89989;-68
2022/05/03 03:04:54;;;;;;;7.43;5.00;;;6.70;99.90;6.40;100536.00;;;;4956151;28;87694;-67
2022/05/03 03:07:22;;;;;;;5.77;4.50;;;6.60;99.90;6.50;100538.00;;;;4944377;28;87793;-67
2022/05/03 03:09:56;;;;;;;6.80;5.10;;;6.60;99.90;6.50;100535.00;;;;4950264;28;116680;-67
2022/05/03 03:12:39;;;;;;;7.37;4.93;;;6.80;99.90;6.50;100532.00;;;;4958007;28;88174;-67
2022/05/03 03:15:07;;;;;;;6.47;4.63;;;6.60;99.90;6.40;100538.00;;;;4935070;28;87134;-67
2022/05/03 03:17:43;;;;;;;7.37;4.67;;;6.60;99.90;6.30;100536.00;;;;4936717;28;87640;-67
2022/05/03 03:20:12;;;;;;;6.30;4.23;;;6.50;99.90;6.30;100544.00;;;;4941854;28;100235;-67
2022/05/03 03:22:46;;;;;;;6.60;4.57;;;6.50;99.90;6.30;100534.00;;;;4954106;28;107693;-67
2022/05/03 03:25:15;;;;;;;8.17;5.00;;;6.40;99.90;6.30;100538.00;;;;4955538;28;101880;-67
2022/05/03 03:27:45;;;;;;;6.27;4.17;;;6.70;99.90;6.30;100531.00;;;;4956496;28;87791;-68
2022/05/03 03:30:12;;;;;;;6.43;4.83;;;6.40;99.90;6.30;100530.00;;;;4956099;28;87767;-68
2022/05/03 03:32:48;;;;;;;6.53;4.50;;;6.40;99.90;6.20;100523.00;;;;4955501;28;88777;-68
2022/05/03 03:35:17;;;;;;;8.30;4.87;;;6.40;99.90;6.20;100520.00;;;;4950588;28;87731;-68
2022/05/03 03:37:49;;;;;;;7.40;5.60;;;6.30;99.90;6.10;100517.00;;;;4951387;28;87614;-67
2022/05/03 03:40:20;;;;;;;8.67;5.03;;;6.30;99.90;6.10;100518.00;;;;4935999;28;87771;-68
2022/05/03 03:42:47;;;;;;;6.07;4.83;;;6.50;99.90;6.00;100520.00;;;;4936353;28;116761;-67
2022/05/03 03:45:17;;;;;;;6.77;4.87;;;6.20;99.90;6.00;100513.00;;;;4955601;28;87920;-67
2022/05/03 03:47:45;;;;;;;7.17;5.33;;;6.10;99.90;6.00;100518.00;;;;4955504;28;88732;-67
2022/05/03 03:50:12;;;;;;;6.07;4.77;;;6.10;99.90;6.00;100515.00;;;;4955423;28;88649;-67
2022/05/03 03:52:44;;;;;;;6.07;4.87;;;6.20;99.90;6.10;100521.00;;;;4953921;28;88838;-67
2022/05/03 03:55:12;;;;;;;9.23;5.53;;;6.50;99.90;6.10;100519.00;;;;4936495;28;88033;-67
2022/05/03 03:57:38;;;;;;;5.73;4.83;;;6.70;99.90;6.20;100504.00;;;;4952132;28;87860;-69
2022/05/03 04:00:12;;;;;;;4.30;3.63;;;6.70;99.90;6.20;100507.00;;;;4956039;28;88231;-68
2022/05/03 04:02:40;;;;;;;7.37;5.40;;;6.30;99.90;6.20;100515.00;;;;4951356;28;110508;-68
2022/05/03 04:05:15;;;;;;;7.77;4.43;;;6.30;99.90;6.20;100519.00;;;;4954826;28;86640;-68
2022/05/03 04:07:41;;;;;;;5.33;4.70;;;6.30;99.90;6.20;100530.00;;;;4955822;28;87740;-68
2022/05/03 04:10:07;;;;;;;7.07;5.50;;;6.80;99.90;6.30;100517.00;;;;4954871;28;107991;-68
2022/05/03 04:12:33;;;;;;;7.17;5.00;;;6.40;99.90;6.30;100510.00;;;;4939348;28;94271;-68
2022/05/03 04:14:59;;;;;;;7.20;3.70;;;6.40;99.90;6.30;100517.00;;;;4935019;28;110644;-68
2022/05/03 04:17:24;;;;;;;7.40;5.33;;;6.50;99.90;6.40;100513.00;;;;4935068;28;107762;-68
2022/05/03 04:19:50;;;;;;;9.33;5.37;;;6.50;99.90;6.40;100515.00;;;;4938414;28;104679;-68
2022/05/03 04:22:34;;;;;;;7.03;4.70;;;6.50;99.90;6.40;100517.00;;;;4953042;28;87795;-68
2022/05/03 04:25:01;;;;;;;6.20;5.57;;;6.50;99.90;6.50;100512.00;;;;4954138;28;88168;-68
2022/05/03 04:27:27;;;;;;;6.63;5.10;;;7.00;99.90;6.40;100521.00;;;;4952984;28;102707;-68
2022/05/03 04:29:54;;;;;;;10.07;6.27;;;6.60;99.90;6.50;100515.00;;;;4954559;28;87582;-68
2022/05/03 04:32:21;;;;;;;14.27;4.63;;;6.60;99.90;6.50;100517.00;;;;4954357;28;87882;-68
2022/05/03 04:34:47;;;;;;;7.90;5.77;;;6.60;99.90;6.60;100518.00;;;;4950707;28;87894;-69
2022/05/03 04:37:13;;;;;;;8.40;5.40;;;6.60;99.90;6.60;100513.00;;;;4943552;28;88595;-68
2022/05/03 04:39:39;;;;;;;9.23;5.97;;;7.20;99.90;6.70;100527.00;;;;4951361;28;89619;-68
2022/05/03 04:42:05;;;;;;;10.37;7.53;;;6.80;99.90;6.90;100531.00;;;;4951599;28;88181;-68
2022/05/03 04:44:31;;;;;;;6.77;6.03;;;6.90;99.90;7.00;100539.00;;;;4947246;28;87851;-67
2022/05/03 04:46:57;;;;;;;10.07;5.57;;;7.00;99.90;7.10;100542.00;;;;4951314;28;95544;-67
2022/05/03 04:49:23;;;;;;;5.50;4.80;;;7.20;99.90;7.30;100547.00;;;;4950866;28;117352;-67
2022/05/03 04:51:48;;;;;;;8.27;4.93;;;7.30;99.90;7.40;100537.00;;;;4951142;28;88821;-68
2022/05/03 04:54:14;;;;;;;5.63;4.57;;;7.50;99.90;7.50;100532.00;;;;4946330;28;89892;-67
2022/05/03 04:56:49;;;;;;;5.07;4.37;;;7.50;99.90;7.60;100536.00;;;;4949337;28;107019;-68
2022/05/03 04:59:15;;;;;;;6.83;5.33;;;7.70;99.90;7.80;100544.00;;;;4949387;28;97120;-68
2022/05/03 05:01:41;;;;;;;6.60;5.73;;;7.80;99.90;8.00;100552.00;;;;4950242;28;110931;-68
2022/05/03 05:04:06;;;;;;;8.33;4.70;;;8.00;99.90;8.20;100549.00;;;;4949521;28;87997;-68
2022/05/03 05:06:32;;;;;;;6.67;4.60;;;8.60;99.90;8.40;100554.00;;;;4950397;28;108229;-68
2022/05/03 05:08:58;;;;;;;11.03;5.47;;;8.40;99.90;8.60;100563.00;;;;4949931;28;117940;-67
2022/05/03 05:11:23;;;;;;;6.13;4.93;;;8.60;99.90;8.80;100542.00;;;;4950644;28;116206;-68
2022/05/03 05:13:50;;;;;;;8.43;5.83;;;8.80;99.90;9.00;100562.00;;;;4949436;28;111749;-68
2022/05/03 05:16:15;;;;;;;5.93;4.57;;;9.00;99.90;9.20;100553.00;;;;4945642;28;88204;-68
2022/05/03 05:18:42;;;;;;;6.63;4.53;;;9.10;99.90;9.30;100548.00;;;;4951080;28;94119;-67
2022/05/03 05:21:08;;;;;;;6.57;5.30;;;9.30;99.90;9.50;100550.00;;;;4950155;28;87846;-67
2022/05/03 05:23:34;;;;;;;7.13;5.43;;;9.50;99.90;9.60;100549.00;;;;4946743;28;87929;-68
2022/05/03 05:25:59;;;;;;;6.00;5.00;;;9.60;99.90;9.70;100548.00;;;;4949659;28;104271;-67
2022/05/03 05:28:26;;;;;;;6.67;4.43;;;9.70;99.90;9.90;100550.00;;;;4943970;28;93115;-67
2022/05/03 05:30:52;;;;;;;8.93;5.43;;;9.80;99.90;10.10;100558.00;;;;4950621;28;88896;-68
2022/05/03 05:33:18;;;;;;;6.90;4.80;;;10.10;99.90;10.30;100571.00;;;;4950015;28;110277;-67
2022/05/03 05:35:44;;;;;;;6.47;4.97;;;10.20;99.90;10.60;100561.00;;;;4950502;28;87781;-67
2022/05/03 05:38:13;;;;;;;5.73;4.10;;;10.50;99.90;10.80;100570.00;;;;4947370;28;89295;-67
2022/05/03 05:40:39;;;;;;;6.67;4.43;;;10.70;99.90;11.10;100579.00;;;;4950013;28;88802;-67
2022/05/03 05:43:05;;;;;;;5.40;4.63;;;11.00;99.90;11.30;100580.00;;;;4951039;28;86963;-68
2022/05/03 05:45:30;;;;;;;4.97;4.37;;;11.20;99.90;11.60;100580.00;;;;4947609;28;109095;-67
2022/05/03 05:47:57;;;;;;;7.87;5.37;;;11.40;99.90;11.80;100583.00;;;;4950412;28;105206;-67
2022/05/03 05:50:25;;;;;;;5.40;4.10;;;11.70;99.90;12.00;100580.00;;;;4953399;28;88843;-67
2022/05/03 05:55:45;;;;;;;7.27;4.17;;;12.20;99.90;12.60;100586.00;;;;4953338;28;89027;-68
2022/05/03 05:58:11;;;;;;;6.63;4.47;;;12.40;99.90;12.80;100591.00;;;;4952665;28;88337;-67
2022/05/03 06:00:36;;;;;;;4.93;3.57;;;12.80;99.90;13.00;100593.00;;;;4952783;28;88616;-67
2022/05/03 06:03:03;;;;;;;5.43;3.50;;;12.90;99.90;13.20;100586.00;;;;4953425;28;110383;-68
2022/05/03 06:05:31;;;;;;;5.10;3.90;;;13.10;99.90;13.50;100591.00;;;;4951132;28;89625;-67
2022/05/03 06:07:56;;;;;;;3.67;3.30;;;13.40;99.90;13.80;100594.00;;;;4953949;28;88285;-67
2022/05/03 06:10:23;;;;;;;4.13;3.63;;;13.60;99.90;14.00;100599.00;;;;4947972;28;88345;-67
2022/05/03 06:12:50;;;;;;;5.70;3.90;;;13.90;99.90;14.30;100602.00;;;;4953220;28;88393;-67
2022/05/03 06:15:16;;;;;;;5.37;3.33;;;14.10;99.90;14.50;100610.00;;;;4953285;28;89002;-67
2022/05/03 06:17:42;;;;;;;3.93;3.10;;;14.30;99.70;14.70;100610.00;;;;4952875;28;89130;-67
2022/05/03 06:20:09;;;;;;;4.93;3.73;;;14.50;99.30;14.90;100603.00;;;;4951446;28;88137;-68
2022/05/03 06:22:34;;;;;;;11.10;3.80;;;14.70;98.80;15.10;100614.00;;;;4954297;28;87977;-66
2022/05/03 06:25:00;;;;;;;4.68;3.15;;;15.00;98.20;15.40;100608.00;;;;4953177;28;109026;-66
2022/05/03 06:27:26;;;;;;;4.95;4.05;;;15.20;97.60;15.60;100608.00;;;;4952278;28;118359;-68
2022/05/03 06:29:51;;;;;;;3.42;3.13;;;15.40;96.90;15.80;100618.00;;;;4951809;28;103212;-68
2022/05/03 06:32:17;;;;;;;7.35;3.20;;;15.70;96.00;16.00;100621.00;;;;4949009;28;110662;-68
2022/05/03 06:34:43;;;;;;;4.30;3.60;;;15.90;95.40;16.30;100621.00;;;;4953022;28;107503;-66
2022/05/03 06:37:09;;;;;;;3.80;3.40;;;16.10;94.70;16.60;100629.00;;;;4949487;28;118016;-69
2022/05/03 06:39:53;;;;;;;4.82;3.17;;;16.40;93.90;16.80;100622.00;;;;4951309;28;115735;-68
2022/05/03 06:42:18;;;;;;;3.03;2.28;;;16.60;93.00;17.00;100636.00;;;;4951709;28;110738;-66
2022/05/03 06:44:44;;;;;;;5.57;2.75;;;16.80;91.40;17.20;100629.00;;;;4953273;28;88278;-70
2022/05/03 06:47:10;;;;;;;3.10;2.63;;;17.00;90.50;17.50;100628.00;;;;4951566;28;87989;-69
2022/05/03 06:49:51;;;;;;;2.50;2.28;;;17.30;89.70;17.70;100634.00;;;;4952809;28;88912;-68
2022/05/03 06:52:16;;;;;;;4.03;2.97;;;17.60;87.20;17.90;100635.00;;;;4967051;28;110891;-67
2022/05/03 06:54:42;;;;;;;6.10;2.72;;;17.70;84.80;18.10;100636.00;;;;4951845;28;87645;-67
2022/05/03 06:57:08;;;;;;;3.20;2.13;;;17.90;83.30;18.40;100633.00;;;;4951534;28;117671;-67
2022/05/03 06:59:33;;;;;;;2.67;2.47;;;18.20;81.40;18.70;100641.00;;;;4951379;28;115814;-67
2022/05/03 07:01:59;;;;;;;2.65;2.10;;;18.40;79.70;18.90;100649.00;;;;4952511;28;95521;-68
2022/05/03 07:04:25;;;;;;;3.35;2.78;;;18.70;78.60;19.10;100641.00;;;;4952068;28;89155;-67
2022/05/03 07:06:51;;;;;;;4.88;2.33;;;18.90;75.90;19.20;100648.00;;;;4952995;28;88006;-69
2022/05/03 07:09:17;;;;;;;3.42;2.60;;;19.10;72.00;19.30;100649.00;;;;4952835;28;88114;-69
2022/05/03 07:11:48;;;;;;;2.05;1.85;;;19.20;70.60;19.40;100651.00;;;;4951916;28;110082;-67
2022/05/03 07:14:15;;;;;;;2.95;2.58;;;19.30;68.40;19.50;100654.00;;;;4948103;28;107636;-67
2022/05/03 07:16:41;;;;;;;4.10;2.63;;;19.40;66.60;19.70;100649.00;;;;4952312;28;88697;-67
2022/05/03 07:24:35;;;;;;;2.28;2.05;;;20.00;62.70;20.30;100655.00;;;;4949548;28;87842;-68
2022/05/03 07:27:02;;;;;;;1.63;1.48;;;20.20;60.90;20.50;100651.00;;;;4951795;28;117083;-69
2022/05/03 07:29:27;;;;;;;2.85;2.30;;;20.30;60.30;20.80;100656.00;;;;4949955;28;89091;-68
2022/05/03 07:31:53;;;;;;;2.50;2.15;;;20.50;59.60;21.10;100656.00;;;;4951485;28;110113;-67
2022/05/03 07:34:19;;;;;;;3.45;1.92;;;20.80;58.50;21.30;100655.00;;;;4947838;28;88375;-68
2022/05/03 07:36:44;;;;;;;2.03;1.73;;;21.10;57.40;21.40;100656.00;;;;4951522;28;117779;-68
2022/05/03 07:39:10;;;;;;;2.83;2.03;;;21.20;55.90;21.50;100661.00;;;;4951805;28;117616;-68
2022/05/03 07:41:36;;;;;;;1.55;1.45;;;21.30;55.40;21.70;100665.00;;;;4952369;28;87865;-68
2022/05/03 07:44:02;;;;;;;2.25;2.05;;;21.50;55.00;21.90;100671.00;;;;4950955;28;87776;-69
2022/05/03 07:46:28;;;;;;;1.95;1.42;;;21.70;54.30;22.20;100668.00;;;;4951992;28;109513;-69
2022/05/03 07:48:56;;;;;;;2.40;2.10;;;21.90;53.60;22.30;100663.00;;;;4950464;28;116215;-69
2022/05/03 07:51:21;;;;;;;2.25;1.67;;;22.10;52.70;22.40;100664.00;;;;4951096;28;87732;-69
2022/05/03 07:53:47;;;;;;;2.85;2.10;;;22.30;51.80;22.50;100664.00;;;;4951991;28;89205;-67
2022/05/03 07:56:13;;;;;;;2.75;2.13;;;22.30;51.00;22.60;100666.00;;;;4946337;28;117669;-67
2022/05/03 07:58:38;;;;;;;2.90;1.85;;;22.40;50.30;22.60;100670.00;;;;4952264;28;89176;-67
2022/05/03 08:01:07;;;;;;;1.77;1.48;;;22.50;49.90;22.80;100672.00;;;;4951753;28;110568;-67
2022/05/03 08:03:34;;;;;;;1.60;1.50;;;22.60;49.60;23.00;100675.00;;;;4952601;28;87795;-67
2022/05/03 08:06:02;;;;;;;3.15;2.15;;;22.80;49.30;23.20;100680.00;;;;4951276;28;88607;-69
2022/05/03 08:08:28;;;;;;;1.73;1.50;;;23.00;48.90;23.40;100673.00;;;;4951536;28;87632;-67
2022/05/03 08:10:53;;;;;;;2.28;1.65;;;23.20;48.40;23.60;100682.00;;;;4950976;28;87563;-68
2022/05/03 08:13:19;;;;;;;3.17;1.52;;;23.30;47.70;23.80;100682.00;;;;4951341;28;108760;-69
2022/05/03 08:15:45;;;;;;;1.63;1.52;;;23.50;47.40;24.00;100680.00;;;;4947846;28;94194;-69
2022/05/03 08:18:11;;;;;;;1.90;1.65;;;23.80;46.90;24.20;100678.00;;;;4946428;28;88977;-67
2022/05/03 08:20:38;;;;;;;2.58;1.80;;;24.00;46.50;24.40;100688.00;;;;4950221;28;108805;-69
2022/05/03 08:23:03;;;;;;;1.48;1.15;;;24.10;46.10;24.50;100687.00;;;;4947553;28;87958;-71
2022/05/03 08:25:29;;;;;;;1.33;1.23;;;24.20;45.60;24.70;100688.00;;;;4949595;28;88794;-70
2022/05/03 08:27:55;;;;;;;3.45;1.60;;;24.40;45.30;24.80;100680.00;;;;4950930;28;87967;-71
2022/05/03 08:30:21;;;;;;;1.77;1.33;;;24.60;44.70;24.90;100690.00;;;;4951360;28;87652;-72
2022/05/03 08:32:47;;;;;;;3.30;1.65;;;24.70;44.20;25.10;100683.00;;;;4950490;28;109194;-69
2022/05/03 08:35:12;;;;;;;9.68;1.83;;;24.80;43.90;25.30;100687.00;;;;4949008;28;116922;-71
2022/05/03 08:43:07;;;;;;;2.28;1.58;;;25.40;42.30;25.50;100694.00;;;;4949935;28;88472;-72
2022/05/03 08:45:32;;;;;;;2.38;1.58;;;25.30;42.10;25.60;100692.00;;;;4950688;28;106454;-71
2022/05/03 08:48:18;;;;;;;2.78;2.05;;;25.40;42.00;25.60;100699.00;;;;4947867;28;116854;-70
2022/05/03 08:50:46;;;;;;;2.13;1.55;;;25.40;41.90;25.70;100704.00;;;;4949599;28;88001;-70
2022/05/03 08:53:19;;;;;;;1.20;1.10;;;25.50;41.60;25.70;100697.00;;;;4951527;28;87908;-69
2022/05/03 08:55:45;;;;;;;8.40;1.73;;;25.50;40.90;25.70;100705.00;;;;4948425;28;87721;-70
2022/05/03 08:58:18;;;;;;;2.28;1.52;;;25.50;40.50;25.70;100704.00;;;;4946168;28;87999;-71
2022/05/03 09:00:44;;;;;;;2.47;1.40;;;25.50;40.30;25.80;100703.00;;;;4951541;28;87161;-71
2022/05/03 09:03:09;;;;;;;1.60;1.50;;;25.70;40.10;25.80;100703.00;;;;4950336;28;110064;-70
2022/05/03 09:05:35;;;;;;;2.30;1.63;;;25.50;40.30;25.80;100701.00;;;;4949409;28;118094;-70
2022/05/03 09:08:01;;;;;;;3.85;1.20;;;25.60;40.20;25.90;100703.00;;;;4949987;28;117898;-72
2022/05/03 09:10:33;;;;;;;2.67;1.92;;;25.60;40.00;25.90;100703.00;;;;4947897;28;87999;-70
2022/05/03 09:13:17;;;;;;;1.85;1.35;;;25.60;40.00;26.00;100703.00;;;;4950765;28;98568;-72
2022/05/03 09:15:42;;;;;;;1.48;1.38;;;25.80;39.90;26.10;100695.00;;;;4948963;28;87855;-69
2022/05/03 09:18:28;;;;;;;7.43;1.98;;;25.80;39.60;26.20;100700.00;;;;4950306;28;94479;-72
2022/05/03 09:23:47;;;;;;;1.75;1.20;;;25.90;39.20;26.40;100696.00;;;;4952263;28;87723;-72
2022/05/03 09:26:24;;;;;;;2.08;1.88;;;26.00;39.00;26.50;100701.00;;;;4954866;28;87335;-72
2022/05/03 09:29:10;;;;;;;14.88;1.52;;;26.20;38.90;26.50;100702.00;;;;4953516;28;87995;-69
2022/05/03 09:31:50;;;;;;;1.98;1.60;;;26.20;38.70;26.30;100702.00;;;;4952073;28;88061;-72
2022/05/03 09:34:26;;;;;;;1.58;1.45;;;26.10;38.60;26.10;100707.00;;;;4953715;28;88873;-70
2022/05/03 09:37:09;;;;;;;4.30;1.55;;;25.90;38.60;25.90;100707.00;;;;4952319;28;88089;-70
2022/05/03 09:39:46;;;;;;;3.53;1.52;;;25.60;38.50;25.90;100706.00;;;;4951921;28;87977;-69
2022/05/03 09:42:19;;;;;;;4.05;1.83;;;25.60;38.90;25.80;100715.00;;;;4950934;28;87879;-70
2022/05/03 09:45:03;;;;;;;2.10;1.45;;;25.60;38.70;25.70;100702.00;;;;4953891;28;87792;-70
2022/05/03 09:47:46;;;;;;;2.55;1.65;;;25.50;38.60;25.70;100692.00;;;;4953176;28;88582;-73
2022/05/03 09:50:36;;;;;;;3.72;1.63;;;25.40;38.70;25.80;100698.00;;;;4952115;28;87912;-70
2022/05/03 09:53:16;;;;;;;1.85;1.75;;;25.50;38.90;26.00;100705.00;;;;4953019;28;87060;-71
2022/05/03 09:55:42;;;;;;;4.70;2.13;;;25.50;38.70;26.20;100700.00;;;;4953926;28;87747;-71
2022/05/03 09:58:10;;;;;;;4.40;1.30;;;25.70;38.30;26.50;100693.00;;;;4953820;28;88448;-74
2022/05/03 10:00:40;;;;;;;2.17;1.98;;;26.00;38.30;26.80;100694.00;;;;4953154;28;88914;-70
2022/05/03 10:03:09;;;;;;;2.10;1.30;;;26.20;38.60;27.10;100693.00;;;;4952391;28;87891;-70
2022/05/03 10:05:41;;;;;;;8.13;1.88;;;26.40;37.70;27.40;100691.00;;;;4953665;28;87747;-70
2022/05/03 10:08:11;;;;;;;3.53;1.85;;;26.70;37.20;27.60;100691.00;;;;4954014;28;88081;-71
2022/05/03 10:10:41;;;;;;;3.92;1.67;;;27.00;37.10;27.80;100686.00;;;;4953212;28;88690;-72
2022/05/03 10:13:07;;;;;;;1.35;1.10;;;27.20;36.50;28.00;100684.00;;;;4946976;28;88155;-72
2022/05/03 10:21:27;;;;;;;3.28;2.00;;;27.80;36.70;28.90;100694.00;;;;4949991;28;87868;-71
2022/05/03 10:24:11;;;;;;;1.17;1.08;;;28.20;35.70;29.00;100695.00;;;;4950681;28;88002;-70
2022/05/03 10:26:54;;;;;;;4.90;1.65;;;28.30;35.10;28.80;100689.00;;;;4951480;28;88937;-73
2022/05/03 10:29:24;;;;;;;1.67;1.50;;;28.20;34.50;28.60;100685.00;;;;4951670;28;88181;-70
2022/05/03 10:32:03;;;;;;;1.88;1.48;;;28.10;34.90;28.60;100687.00;;;;4953622;28;87831;-71
2022/05/03 10:34:53;;;;;;;1.75;1.30;;;28.00;35.10;28.70;100681.00;;;;4947444;28;88150;-72
2022/05/03 10:37:33;;;;;;;1.98;1.42;;;28.10;35.20;28.80;100693.00;;;;4951383;28;87785;-71
2022/05/03 10:40:02;;;;;;;2.63;1.60;;;28.10;34.90;28.80;100683.00;;;;4952994;28;87533;-72
2022/05/03 10:42:30;;;;;;;3.13;1.33;;;28.10;34.20;28.80;100687.00;;;;4950944;28;110724;-70
2022/05/03 10:45:14;;;;;;;1.10;1.02;;;28.20;34.30;29.00;100677.00;;;;4951634;28;87510;-70
2022/05/03 10:47:52;;;;;;;2.17;1.75;;;28.30;34.50;29.30;100675.00;;;;4946451;28;87870;-69
2022/05/03 10:50:19;;;;;;;4.25;1.80;;;28.50;34.30;29.30;100676.00;;;;4950955;28;88173;-70
2022/05/03 10:52:54;;;;;;;2.22;1.75;;;28.60;34.20;29.40;100663.00;;;;4952643;28;88926;-70
2022/05/03 10:55:20;;;;;;;1.58;1.45;;;28.80;34.30;29.60;100668.00;;;;4952779;28;87752;-71
2022/05/03 10:58:20;;;;;;;4.20;2.17;;;28.90;34.00;29.60;100668.00;;;;4948371;28;93044;-70
2022/05/03 11:01:10;;;;;;;2.03;1.80;;;29.00;33.30;29.60;100662.00;;;;4950779;28;89437;-71
2022/05/03 11:03:41;;;;;;;3.42;1.63;;;28.90;33.50;29.90;100663.00;;;;4953093;28;87827;-70
2022/05/03 11:06:19;;;;;;;1.95;1.60;;;29.20;33.90;30.10;100663.00;;;;4950060;28;104321;-71
2022/05/03 11:11:50;;;;;;;2.08;1.70;;;29.50;32.70;30.20;100658.00;;;;4949797;28;94209;-71
2022/05/03 11:14:16;;;;;;;2.17;1.55;;;29.50;32.80;30.50;100656.00;;;;4952887;28;87951;-71
2022/05/03 11:16:43;;;;;;;4.60;1.67;;;29.70;32.90;30.80;100660.00;;;;4950837;28;107736;-71
2022/05/03 11:19:14;;;;;;;1.98;1.40;;;30.00;33.00;31.10;100659.00;;;;4948949;28;88677;-71
2022/05/03 11:21:41;;;;;;;2.88;1.73;;;30.20;32.80;31.20;100658.00;;;;4951503;28;88970;-70
2022/05/03 11:24:24;;;;;;;2.88;1.83;;;30.50;32.60;30.80;100657.00;;;;4953033;28;87940;-71
2022/05/03 11:26:53;;;;;;;4.20;1.38;;;30.30;30.80;30.10;100663.00;;;;4953225;28;88242;-71
2022/05/03 11:29:20;;;;;;;1.40;1.15;;;29.60;31.10;29.60;100657.00;;;;4952341;28;88047;-71
2022/05/03 11:31:51;;;;;;;2.08;1.10;;;29.20;32.20;29.20;100662.00;;;;4951374;28;88458;-70
2022/05/03 11:34:18;;;;;;;1.60;1.45;;;28.80;32.80;29.00;100654.00;;;;4949296;28;96440;-71
2022/05/03 11:36:50;;;;;;;2.10;1.50;;;28.60;33.20;29.10;100655.00;;;;4951173;28;87011;-70
2022/05/03 11:39:17;;;;;;;5.20;1.98;;;28.50;33.60;29.30;100654.00;;;;4951641;28;87962;-73
2022/05/03 11:41:43;;;;;;;1.52;1.42;;;28.70;33.30;29.60;100650.00;;;;4947742;28;88375;-70
2022/05/03 11:44:10;;;;;;;2.25;1.48;;;28.80;33.30;29.70;100644.00;;;;4950760;28;116763;-73
2022/05/03 11:46:38;;;;;;;1.92;1.50;;;29.00;33.20;30.00;100649.00;;;;4951252;28;100131;-73
2022/05/03 11:49:06;;;;;;;4.05;1.63;;;29.20;32.90;30.30;100644.00;;;;4951541;28;94548;-72